Vidsel, Sweden

9:10 PM CEST on August 21, 2014 (GMT +0200)
Vidsel Air Base | Change Station
CLOSE
Current Station
Airport
Location: Vidsel,
Elevation: 597 ft
Nearby Weather Stations

Elev 597 ft 65.88 °N, 20.14 °E | Updated 20 minutes ago

Drizzle
Drizzle
50 °F
Feels Like 50 °F
N
2
Wind Variable Wind from North

Today
High -- | Low -- °F
--% Chance of Precip.
Yesterday
High -- | Low -- °F
Precip. -- in
4:37 AM 8:44 PM
Waning Crescent, 13% visible
Pressure 29.65 in
Visibility 6.2 miles
Clouds Overcast 1100 ft
Dew Point 48 °F
Humidity 94%
Rainfall 0.00 in
Snow Depth Not available.
UV 0 out of 12
Pollen Not available.
Air Quality Not available.
Flu Activity Not available.
METAR ESPE 211850Z AUTO 35002KT 9999NDV DZ OVC011/// 10/09 Q1004

More Conditions Fewer Conditions

Pressure 29.65 in
Visibility 6.2 miles
Clouds Overcast 1100 ft
Dew Point 48 °F
Humidity 94%
Rainfall 0.00 in
Snow Depth Not available.
UV 0 out of 12
Pollen Not available.
Air Quality Not available.
Flu Activity Not available.
METAR ESPE 211850Z AUTO 35002KT 9999NDV DZ OVC011/// 10/09 Q1004

More Conditions Fewer Conditions

10-Day Weather Forecast

Almanac

Astronomy

Aug. 21, 2014 Rise Set
Actual Time 4:37 AM CEST 8:44 PM CEST
Civil Twilight 3:30 AM CEST 9:51 PM CEST
Nautical Twilight 1:15 AM CEST 12:10 AM CEST
Astronomical Twilight Sun does not rise Sun does not rise
Moon 12:01 AM CEST 6:43 PM CEST
Length of Visible Light 18h 20m
Length of Day
16h 07m
Tomorrow will be 7m 16s shorter.
Waning Crescent, 13% of the Moon is Illuminated
Today
Waning Crescent
Aug 25
New
Sep 2
First Quarter
Sep 8
Full
Sep 15
Last Quarter

Today's Extremes

Country Highs Country Lows

Community

WunderPhotos

Upload Photos

1,746,005 photos uploaded!

WunderBlogs® & News

Nearby

Snow Depth

Not available.

Earthquake Activity

City Distance Mag. Time & Date
No recent earthquake activity has been reported nearby.
Minimum magnitude displayed is 2.5.

Coastal Water Temperatures

Place Temperature
No Stations Reporting

Nearby Weather Stations